sensor_id;sensor_type;location;lat;lon;timestamp;pressure;altitude;pressure_sealevel;temperature;humidity
21879;BME280;27908;42.708;23.278;2022-09-13T00:01:07;54123.53;;;13.44;100.00
21879;BME280;27908;42.708;23.278;2022-09-13T00:03:33;54078.69;;;13.37;100.00
21879;BME280;27908;42.708;23.278;2022-09-13T00:06:17;54097.94;;;13.64;100.00
21879;BME280;27908;42.708;23.278;2022-09-13T00:08:43;54075.56;;;13.77;100.00
21879;BME280;27908;42.708;23.278;2022-09-13T00:11:19;54019.91;;;13.83;100.00
21879;BME280;27908;42.708;23.278;2022-09-13T00:13:45;54021.25;;;13.87;100.00
21879;BME280;27908;42.708;23.278;2022-09-13T00:16:14;54118.16;;;13.76;100.00
21879;BME280;27908;42.708;23.278;2022-09-13T00:18:39;54040.88;;;13.89;100.00
21879;BME280;27908;42.708;23.278;2022-09-13T00:21:07;53988.47;;;13.88;100.00
21879;BME280;27908;42.708;23.278;2022-09-13T00:23:34;54014.50;;;13.91;100.00
21879;BME280;27908;42.708;23.278;2022-09-13T00:26:09;54009.00;;;13.94;100.00
21879;BME280;27908;42.708;23.278;2022-09-13T00:28:35;53977.03;;;13.92;100.00
21879;BME280;27908;42.708;23.278;2022-09-13T00:31:03;53912.28;;;13.91;100.00
21879;BME280;27908;42.708;23.278;2022-09-13T00:33:29;53920.88;;;13.98;100.00
21879;BME280;27908;42.708;23.278;2022-09-13T00:35:54;53779.13;;;14.06;100.00
21879;BME280;27908;42.708;23.278;2022-09-13T00:38:20;53788.47;;;14.02;100.00
21879;BME280;27908;42.708;23.278;2022-09-13T00:40:45;53665.34;;;14.01;100.00
21879;BME280;27908;42.708;23.278;2022-09-13T00:43:37;53676.00;;;14.02;100.00
21879;BME280;27908;42.708;23.278;2022-09-13T00:46:04;53726.34;;;14.10;100.00
21879;BME280;27908;42.708;23.278;2022-09-13T00:48:32;53637.31;;;14.10;100.00
21879;BME280;27908;42.708;23.278;2022-09-13T00:50:59;53609.59;;;14.08;100.00
21879;BME280;27908;42.708;23.278;2022-09-13T00:53:29;53632.13;;;14.01;100.00
21879;BME280;27908;42.708;23.278;2022-09-13T00:56:02;53505.63;;;14.09;100.00
21879;BME280;27908;42.708;23.278;2022-09-13T00:58:51;53474.13;;;14.08;100.00
21879;BME280;27908;42.708;23.278;2022-09-13T01:01:18;53385.56;;;14.21;100.00
21879;BME280;27908;42.708;23.278;2022-09-13T01:03:45;53427.34;;;14.24;100.00
21879;BME280;27908;42.708;23.278;2022-09-13T01:06:19;53497.16;;;14.14;100.00
21879;BME280;27908;42.708;23.278;2022-09-13T01:08:48;53426.50;;;14.29;100.00
21879;BME280;27908;42.708;23.278;2022-09-13T01:11:26;53423.97;;;14.29;100.00
21879;BME280;27908;42.708;23.278;2022-09-13T01:13:54;53407.75;;;14.28;100.00
21879;BME280;27908;42.708;23.278;2022-09-13T01:16:21;53266.72;;;14.31;100.00
21879;BME280;27908;42.708;23.278;2022-09-13T01:18:47;53426.03;;;14.20;100.00
21879;BME280;27908;42.708;23.278;2022-09-13T01:26:41;53241.16;;;14.37;100.00
21879;BME280;27908;42.708;23.278;2022-09-13T01:29:45;53334.94;;;14.36;100.00
21879;BME280;27908;42.708;23.278;2022-09-13T01:37:51;53419.72;;;14.33;100.00
21879;BME280;27908;42.708;23.278;2022-09-13T01:46:02;53333.66;;;14.40;100.00
21879;BME280;27908;42.708;23.278;2022-09-13T01:56:50;53360.91;;;14.30;100.00
21879;BME280;27908;42.708;23.278;2022-09-13T01:59:23;53361.75;;;14.28;100.00
21879;BME280;27908;42.708;23.278;2022-09-13T02:02:02;53322.53;;;14.33;100.00
21879;BME280;27908;42.708;23.278;2022-09-13T02:04:37;53302.50;;;14.28;100.00
21879;BME280;27908;42.708;23.278;2022-09-13T02:07:10;53316.59;;;14.32;100.00
21879;BME280;27908;42.708;23.278;2022-09-13T02:09:41;53270.13;;;14.35;100.00
21879;BME280;27908;42.708;23.278;2022-09-13T02:12:28;53214.72;;;14.33;100.00
21879;BME280;27908;42.708;23.278;2022-09-13T02:15:23;53296.94;;;14.24;100.00
21879;BME280;27908;42.708;23.278;2022-09-13T02:18:21;53467.75;;;14.12;100.00
21879;BME280;27908;42.708;23.278;2022-09-13T02:20:49;53388.03;;;14.06;100.00
21879;BME280;27908;42.708;23.278;2022-09-13T02:23:40;53456.50;;;13.90;100.00
21879;BME280;27908;42.708;23.278;2022-09-13T02:26:07;53450.47;;;13.81;100.00
21879;BME280;27908;42.708;23.278;2022-09-13T02:28:40;53575.28;;;13.86;100.00
21879;BME280;27908;42.708;23.278;2022-09-13T02:31:08;53516.06;;;13.83;100.00
21879;BME280;27908;42.708;23.278;2022-09-13T02:34:02;53507.47;;;13.73;100.00
21879;BME280;27908;42.708;23.278;2022-09-13T02:36:35;53552.88;;;13.57;100.00
21879;BME280;27908;42.708;23.278;2022-09-13T02:39:08;53486.84;;;13.49;100.00
21879;BME280;27908;42.708;23.278;2022-09-13T02:41:43;53392.69;;;13.38;100.00
21879;BME280;27908;42.708;23.278;2022-09-13T02:44:22;53453.16;;;13.43;100.00
21879;BME280;27908;42.708;23.278;2022-09-13T02:47:03;53459.94;;;13.39;100.00
21879;BME280;27908;42.708;23.278;2022-09-13T02:54:43;53417.22;;;13.16;100.00
21879;BME280;27908;42.708;23.278;2022-09-13T02:57:23;53411.31;;;13.24;100.00
21879;BME280;27908;42.708;23.278;2022-09-13T02:59:51;53361.91;;;13.14;100.00
21879;BME280;27908;42.708;23.278;2022-09-13T03:02:18;53298.09;;;13.14;100.00
21879;BME280;27908;42.708;23.278;2022-09-13T03:04:46;53324.84;;;13.10;100.00
21879;BME280;27908;42.708;23.278;2022-09-13T03:07:13;53204.06;;;13.12;100.00
21879;BME280;27908;42.708;23.278;2022-09-13T03:09:54;53078.16;;;13.08;100.00
21879;BME280;27908;42.708;23.278;2022-09-13T03:15:24;53036.91;;;13.10;100.00
21879;BME280;27908;42.708;23.278;2022-09-13T03:18:18;53061.56;;;13.06;100.00
21879;BME280;27908;42.708;23.278;2022-09-13T03:26:44;53043.69;;;12.94;100.00
21879;BME280;27908;42.708;23.278;2022-09-13T03:29:39;53034.34;;;13.04;100.00
21879;BME280;27908;42.708;23.278;2022-09-13T03:35:09;52978.63;;;13.02;100.00
21879;BME280;27908;42.708;23.278;2022-09-13T03:43:00;52840.44;;;13.04;100.00
21879;BME280;27908;42.708;23.278;2022-09-13T03:45:32;52764.78;;;12.90;100.00
21879;BME280;27908;42.708;23.278;2022-09-13T03:48:02;52672.88;;;13.08;100.00
21879;BME280;27908;42.708;23.278;2022-09-13T03:50:29;52718.00;;;12.95;100.00
21879;BME280;27908;42.708;23.278;2022-09-13T03:53:09;52705.22;;;13.01;100.00
21879;BME280;27908;42.708;23.278;2022-09-13T03:55:38;52692.47;;;13.04;100.00
21879;BME280;27908;42.708;23.278;2022-09-13T03:58:05;52758.84;;;12.86;100.00
21879;BME280;27908;42.708;23.278;2022-09-13T04:00:30;52733.75;;;12.90;100.00
21879;BME280;27908;42.708;23.278;2022-09-13T04:02:56;52748.63;;;12.83;100.00
21879;BME280;27908;42.708;23.278;2022-09-13T04:05:22;52789.44;;;12.72;100.00
21879;BME280;27908;42.708;23.278;2022-09-13T04:07:47;52739.72;;;12.67;100.00
21879;BME280;27908;42.708;23.278;2022-09-13T04:10:12;52742.72;;;12.62;100.00
21879;BME280;27908;42.708;23.278;2022-09-13T04:12:38;52598.25;;;12.57;100.00
21879;BME280;27908;42.708;23.278;2022-09-13T04:15:06;52628.00;;;12.56;100.00
21879;BME280;27908;42.708;23.278;2022-09-13T04:17:31;52375.97;;;12.65;100.00
21879;BME280;27908;42.708;23.278;2022-09-13T04:19:57;52349.22;;;12.64;100.00
21879;BME280;27908;42.708;23.278;2022-09-13T04:22:22;52324.59;;;12.62;100.00
21879;BME280;27908;42.708;23.278;2022-09-13T04:24:47;52237.06;;;12.64;100.00
21879;BME280;27908;42.708;23.278;2022-09-13T04:27:13;52261.84;;;12.48;100.00
21879;BME280;27908;42.708;23.278;2022-09-13T04:29:38;52130.88;;;12.59;100.00
21879;BME280;27908;42.708;23.278;2022-09-13T04:32:04;52036.66;;;12.53;100.00
21879;BME280;27908;42.708;23.278;2022-09-13T04:34:29;51951.31;;;12.51;100.00
21879;BME280;27908;42.708;23.278;2022-09-13T04:36:54;51897.16;;;12.63;100.00
21879;BME280;27908;42.708;23.278;2022-09-13T04:39:20;51769.91;;;12.51;100.00
21879;BME280;27908;42.708;23.278;2022-09-13T04:41:47;51799.50;;;12.35;100.00
21879;BME280;27908;42.708;23.278;2022-09-13T04:44:14;51741.75;;;12.60;100.00
21879;BME280;27908;42.708;23.278;2022-09-13T04:46:41;51558.41;;;12.51;100.00
21879;BME280;27908;42.708;23.278;2022-09-13T04:49:09;51526.19;;;12.67;100.00
21879;BME280;27908;42.708;23.278;2022-09-13T04:51:34;51374.44;;;12.72;100.00
21879;BME280;27908;42.708;23.278;2022-09-13T04:54:00;51339.78;;;12.64;100.00
21879;BME280;27908;42.708;23.278;2022-09-13T04:56:26;51323.84;;;12.72;100.00
21879;BME280;27908;42.708;23.278;2022-09-13T04:58:53;51236.13;;;12.80;100.00
21879;BME280;27908;42.708;23.278;2022-09-13T05:01:20;51311.00;;;12.93;100.00
21879;BME280;27908;42.708;23.278;2022-09-13T05:03:46;51289.22;;;12.98;100.00
21879;BME280;27908;42.708;23.278;2022-09-13T05:06:14;51203.31;;;13.14;100.00
21879;BME280;27908;42.708;23.278;2022-09-13T05:08:42;51292.59;;;13.29;100.00
21879;BME280;27908;42.708;23.278;2022-09-13T05:11:08;51193.50;;;13.30;100.00
21879;BME280;27908;42.708;23.278;2022-09-13T05:13:34;51368.97;;;13.69;100.00
21879;BME280;27908;42.708;23.278;2022-09-13T05:16:04;51347.47;;;13.92;100.00
21879;BME280;27908;42.708;23.278;2022-09-13T05:18:35;51202.84;;;14.18;100.00
21879;BME280;27908;42.708;23.278;2022-09-13T05:21:03;51394.81;;;14.36;100.00
21879;BME280;27908;42.708;23.278;2022-09-13T05:23:30;51390.44;;;14.56;100.00
21879;BME280;27908;42.708;23.278;2022-09-13T05:26:05;51071.69;;;14.69;100.00
21879;BME280;27908;42.708;23.278;2022-09-13T05:28:33;51084.09;;;14.93;100.00
21879;BME280;27908;42.708;23.278;2022-09-13T05:33:25;51642.16;;;15.15;98.26
21879;BME280;27908;42.708;23.278;2022-09-13T05:35:51;51231.44;;;15.26;100.00
21879;BME280;27908;42.708;23.278;2022-09-13T05:38:17;51764.66;;;15.11;98.25
21879;BME280;27908;42.708;23.278;2022-09-13T05:40:43;51820.00;;;15.16;98.86
21879;BME280;27908;42.708;23.278;2022-09-13T05:43:10;51740.16;;;15.19;99.78
21879;BME280;27908;42.708;23.278;2022-09-13T05:45:36;51840.59;;;15.10;100.00
21879;BME280;27908;42.708;23.278;2022-09-13T05:48:02;51985.81;;;15.00;99.62
21879;BME280;27908;42.708;23.278;2022-09-13T05:50:27;52353.66;;;14.91;99.12
21879;BME280;27908;42.708;23.278;2022-09-13T05:52:55;52352.59;;;14.71;100.00
21879;BME280;27908;42.708;23.278;2022-09-13T05:55:21;52219.44;;;14.80;100.00
21879;BME280;27908;42.708;23.278;2022-09-13T05:57:48;52309.50;;;14.75;100.00
21879;BME280;27908;42.708;23.278;2022-09-13T06:00:15;52220.38;;;14.75;100.00
21879;BME280;27908;42.708;23.278;2022-09-13T06:02:40;52092.84;;;14.79;100.00
21879;BME280;27908;42.708;23.278;2022-09-13T06:05:08;51909.66;;;14.92;100.00
21879;BME280;27908;42.708;23.278;2022-09-13T06:07:34;52130.69;;;14.84;100.00
21879;BME280;27908;42.708;23.278;2022-09-13T06:10:00;52018.53;;;14.85;100.00
21879;BME280;27908;42.708;23.278;2022-09-13T06:12:25;52181.69;;;14.96;99.55
21879;BME280;27908;42.708;23.278;2022-09-13T06:14:51;52041.81;;;15.18;99.14
21879;BME280;27908;42.708;23.278;2022-09-13T06:17:16;51852.75;;;15.22;99.73
21879;BME280;27908;42.708;23.278;2022-09-13T06:19:42;51786.19;;;15.40;99.22
21879;BME280;27908;42.708;23.278;2022-09-13T06:22:07;51719.06;;;15.45;99.29
21879;BME280;27908;42.708;23.278;2022-09-13T06:24:32;51663.72;;;15.56;98.73
21879;BME280;27908;42.708;23.278;2022-09-13T06:26:58;51616.97;;;15.64;98.69
21879;BME280;27908;42.708;23.278;2022-09-13T06:29:24;51788.13;;;15.66;96.98
21879;BME280;27908;42.708;23.278;2022-09-13T06:31:49;51784.03;;;15.77;96.26
21879;BME280;27908;42.708;23.278;2022-09-13T06:34:14;51858.06;;;15.89;95.51
21879;BME280;27908;42.708;23.278;2022-09-13T06:36:42;52059.69;;;15.88;95.05
21879;BME280;27908;42.708;23.278;2022-09-13T06:39:07;51714.97;;;15.89;95.83
21879;BME280;27908;42.708;23.278;2022-09-13T06:41:33;51871.16;;;16.13;93.96
21879;BME280;27908;42.708;23.278;2022-09-13T06:44:00;51649.28;;;16.18;94.01
21879;BME280;27908;42.708;23.278;2022-09-13T06:46:28;52042.72;;;16.25;92.49
21879;BME280;27908;42.708;23.278;2022-09-13T06:48:54;52122.63;;;16.26;92.47
21879;BME280;27908;42.708;23.278;2022-09-13T06:51:23;52286.34;;;16.25;91.56
21879;BME280;27908;42.708;23.278;2022-09-13T06:53:51;52100.97;;;16.39;92.05
21879;BME280;27908;42.708;23.278;2022-09-13T06:56:20;52015.38;;;16.44;92.43
21879;BME280;27908;42.708;23.278;2022-09-13T06:58:48;52310.31;;;16.23;91.42
21879;BME280;27908;42.708;23.278;2022-09-13T07:03:45;52329.69;;;16.40;91.60
21879;BME280;27908;42.708;23.278;2022-09-13T07:06:13;52314.94;;;16.29;91.79
21879;BME280;27908;42.708;23.278;2022-09-13T07:08:40;52335.94;;;16.50;90.78
21879;BME280;27908;42.708;23.278;2022-09-13T07:11:07;52469.66;;;16.60;89.26
21879;BME280;27908;42.708;23.278;2022-09-13T07:13:33;52193.50;;;16.76;89.98
21879;BME280;27908;42.708;23.278;2022-09-13T07:16:03;52399.69;;;16.77;88.78
21879;BME280;27908;42.708;23.278;2022-09-13T07:18:30;52643.03;;;16.82;87.72
21879;BME280;27908;42.708;23.278;2022-09-13T07:21:03;52668.09;;;17.00;85.95
21879;BME280;27908;42.708;23.278;2022-09-13T07:23:31;52641.47;;;17.05;86.32
21879;BME280;27908;42.708;23.278;2022-09-13T07:25:58;52977.50;;;17.04;84.56
21879;BME280;27908;42.708;23.278;2022-09-13T07:28:34;52639.22;;;17.14;85.88
21879;BME280;27908;42.708;23.278;2022-09-13T07:31:05;53169.66;;;17.18;82.59
21879;BME280;27908;42.708;23.278;2022-09-13T07:33:31;53334.09;;;17.07;81.89
21879;BME280;27908;42.708;23.278;2022-09-13T07:35:56;53237.28;;;17.28;82.75
21879;BME280;27908;42.708;23.278;2022-09-13T07:38:23;53500.63;;;17.09;80.87
21879;BME280;27908;42.708;23.278;2022-09-13T07:40:55;53464.28;;;17.32;82.30
21879;BME280;27908;42.708;23.278;2022-09-13T07:43:22;53271.94;;;17.36;82.93
21879;BME280;27908;42.708;23.278;2022-09-13T07:45:47;53101.81;;;17.53;83.47
21879;BME280;27908;42.708;23.278;2022-09-13T07:48:22;53385.84;;;17.66;80.58
21879;BME280;27908;42.708;23.278;2022-09-13T07:53:26;53573.16;;;17.83;79.38
21879;BME280;27908;42.708;23.278;2022-09-13T07:55:52;53524.69;;;17.96;78.74
21879;BME280;27908;42.708;23.278;2022-09-13T07:58:18;53947.44;;;17.88;78.02
21879;BME280;27908;42.708;23.278;2022-09-13T08:00:43;54182.38;;;17.86;76.70
21879;BME280;27908;42.708;23.278;2022-09-13T08:03:10;53890.47;;;17.96;78.71
21879;BME280;27908;42.708;23.278;2022-09-13T08:05:40;53932.47;;;17.94;77.77
21879;BME280;27908;42.708;23.278;2022-09-13T08:08:06;53972.84;;;18.02;77.27
21879;BME280;27908;42.708;23.278;2022-09-13T08:10:32;54353.81;;;18.11;74.32
21879;BME280;27908;42.708;23.278;2022-09-13T08:12:58;54665.94;;;17.80;75.38
21879;BME280;27908;42.708;23.278;2022-09-13T08:15:23;54682.50;;;17.93;75.44
21879;BME280;27908;42.708;23.278;2022-09-13T08:17:49;55072.81;;;17.95;71.94
21879;BME280;27908;42.708;23.278;2022-09-13T08:20:14;54919.91;;;17.85;75.11
21879;BME280;27908;42.708;23.278;2022-09-13T08:22:40;54795.72;;;18.13;73.64
21879;BME280;27908;42.708;23.278;2022-09-13T08:25:05;55013.13;;;18.26;71.38
21879;BME280;27908;42.708;23.278;2022-09-13T08:27:31;55176.88;;;18.36;69.68
21879;BME280;27908;42.708;23.278;2022-09-13T08:29:56;55125.91;;;18.74;68.08
21879;BME280;27908;42.708;23.278;2022-09-13T08:32:22;55414.59;;;18.91;65.47
21879;BME280;27908;42.708;23.278;2022-09-13T08:34:47;55538.19;;;19.00;65.80
21879;BME280;27908;42.708;23.278;2022-09-13T08:37:12;55418.28;;;18.98;67.61
21879;BME280;27908;42.708;23.278;2022-09-13T08:39:38;55581.72;;;18.91;66.99
21879;BME280;27908;42.708;23.278;2022-09-13T08:42:44;56213.13;;;18.65;64.65
21879;BME280;27908;42.708;23.278;2022-09-13T08:45:11;56144.38;;;18.44;67.67
21879;BME280;27908;42.708;23.278;2022-09-13T08:47:46;56185.78;;;18.58;66.63
21879;BME280;27908;42.708;23.278;2022-09-13T08:50:23;56080.16;;;18.81;65.42
21879;BME280;27908;42.708;23.278;2022-09-13T08:58:18;56349.28;;;19.52;59.83
21879;BME280;27908;42.708;23.278;2022-09-13T09:01:00;56527.59;;;19.66;59.29
21879;BME280;27908;42.708;23.278;2022-09-13T09:03:55;56473.94;;;19.50;62.42
21879;BME280;27908;42.708;23.278;2022-09-13T09:06:23;56734.78;;;19.36;60.17
21879;BME280;27908;42.708;23.278;2022-09-13T09:08:57;56709.88;;;19.54;60.32
21879;BME280;27908;42.708;23.278;2022-09-13T09:11:58;57054.78;;;19.75;56.21
21879;BME280;27908;42.708;23.278;2022-09-13T09:17:01;57396.47;;;19.60;56.04
21879;BME280;27908;42.708;23.278;2022-09-13T09:19:36;57439.03;;;19.66;55.97
21879;BME280;27908;42.708;23.278;2022-09-13T09:22:12;57406.47;;;19.76;56.62
21879;BME280;27908;42.708;23.278;2022-09-13T09:24:44;57134.66;;;20.03;57.72
21879;BME280;27908;42.708;23.278;2022-09-13T09:27:17;57561.00;;;20.03;53.45
21879;BME280;27908;42.708;23.278;2022-09-13T09:29:43;57340.31;;;20.30;55.94
21879;BME280;27908;42.708;23.278;2022-09-13T09:35:28;57887.28;;;20.39;53.49
21879;BME280;27908;42.708;23.278;2022-09-13T09:38:24;57946.03;;;20.41;52.92
21879;BME280;27908;42.708;23.278;2022-09-13T09:40:51;58186.66;;;20.25;53.17
21879;BME280;27908;42.708;23.278;2022-09-13T09:43:40;58246.47;;;20.06;55.60
21879;BME280;27908;42.708;23.278;2022-09-13T09:46:09;58414.81;;;19.66;56.59
21879;BME280;27908;42.708;23.278;2022-09-13T09:48:40;58184.72;;;20.04;57.30
21879;BME280;27908;42.708;23.278;2022-09-13T09:51:08;58377.91;;;19.90;56.58
21879;BME280;27908;42.708;23.278;2022-09-13T09:53:39;58507.59;;;19.63;56.74
21879;BME280;27908;42.708;23.278;2022-09-13T09:58:49;58267.41;;;20.04;57.02
21879;BME280;27908;42.708;23.278;2022-09-13T10:04:03;57932.69;;;20.93;55.74
21879;BME280;27908;42.708;23.278;2022-09-13T10:06:30;57920.59;;;21.00;55.41
21879;BME280;27908;42.708;23.278;2022-09-13T10:11:58;57643.41;;;21.52;55.53
21879;BME280;27908;42.708;23.278;2022-09-13T10:14:28;58192.13;;;21.27;51.88
21879;BME280;27908;42.708;23.278;2022-09-13T10:22:19;57522.19;;;22.13;54.86
21879;BME280;27908;42.708;23.278;2022-09-13T10:24:45;57953.91;;;22.07;51.89
21879;BME280;27908;42.708;23.278;2022-09-13T10:27:36;58530.47;;;22.08;49.38
21879;BME280;27908;42.708;23.278;2022-09-13T10:30:04;58478.03;;;21.88;52.99
21879;BME280;27908;42.708;23.278;2022-09-13T10:32:30;58934.56;;;21.75;48.57
21879;BME280;27908;42.708;23.278;2022-09-13T10:35:06;58756.63;;;21.86;50.83
21879;BME280;27908;42.708;23.278;2022-09-13T10:37:33;58938.31;;;22.00;49.69
21879;BME280;27908;42.708;23.278;2022-09-13T10:40:03;59213.31;;;21.36;50.72
21879;BME280;27908;42.708;23.278;2022-09-13T10:42:31;59295.53;;;20.60;51.31
21879;BME280;27908;42.708;23.278;2022-09-13T10:44:58;59418.06;;;20.98;50.02
21879;BME280;27908;42.708;23.278;2022-09-13T10:47:47;59003.31;;;21.54;52.20
21879;BME280;27908;42.708;23.278;2022-09-13T10:50:21;59028.69;;;22.21;48.08
21879;BME280;27908;42.708;23.278;2022-09-13T10:52:52;59239.81;;;22.33;46.13
21879;BME280;27908;42.708;23.278;2022-09-13T10:57:49;59611.19;;;22.17;45.61
21879;BME280;27908;42.708;23.278;2022-09-13T11:00:17;59597.41;;;22.09;47.63
21879;BME280;27908;42.708;23.278;2022-09-13T11:11:34;59779.78;;;22.49;44.76
21879;BME280;27908;42.708;23.278;2022-09-13T11:14:41;59738.09;;;22.76;45.20
21879;BME280;27908;42.708;23.278;2022-09-13T11:20:15;59970.41;;;22.61;44.19
21879;BME280;27908;42.708;23.278;2022-09-13T11:31:48;60210.25;;;23.23;42.85
21879;BME280;27908;42.708;23.278;2022-09-13T11:39:12;60129.50;;;23.85;43.08
21879;BME280;27908;42.708;23.278;2022-09-13T11:42:01;60428.19;;;22.94;43.00
21879;BME280;27908;42.708;23.278;2022-09-13T11:55:26;60514.69;;;22.97;45.19
21879;BME280;27908;42.708;23.278;2022-09-13T11:57:56;60415.66;;;23.37;43.87
21879;BME280;27908;42.708;23.278;2022-09-13T12:00:25;60370.78;;;23.39;44.39
21879;BME280;27908;42.708;23.278;2022-09-13T12:05:55;60694.78;;;23.09;43.39
21879;BME280;27908;42.708;23.278;2022-09-13T12:08:25;60748.59;;;22.66;44.71
21879;BME280;27908;42.708;23.278;2022-09-13T12:13:25;60735.41;;;23.08;43.82
21879;BME280;27908;42.708;23.278;2022-09-13T12:25:18;60814.97;;;23.15;43.16
21879;BME280;27908;42.708;23.278;2022-09-13T12:31:16;60960.28;;;22.70;43.31
21879;BME280;27908;42.708;23.278;2022-09-13T12:50:36;60918.28;;;23.24;43.30
21879;BME280;27908;42.708;23.278;2022-09-13T12:53:34;60869.03;;;23.46;42.07
21879;BME280;27908;42.708;23.278;2022-09-13T12:58:59;61041.44;;;22.68;43.87
21879;BME280;27908;42.708;23.278;2022-09-13T13:01:30;61020.41;;;22.31;45.35
21879;BME280;27908;42.708;23.278;2022-09-13T13:04:22;61089.44;;;22.22;45.46
21879;BME280;27908;42.708;23.278;2022-09-13T13:09:41;61113.84;;;22.65;43.47
21879;BME280;27908;42.708;23.278;2022-09-13T13:12:10;61091.91;;;22.58;43.75
21879;BME280;27908;42.708;23.278;2022-09-13T13:23:28;61021.47;;;23.21;44.22
21879;BME280;27908;42.708;23.278;2022-09-13T13:33:53;61212.25;;;21.81;46.94
21879;BME280;27908;42.708;23.278;2022-09-13T13:38:49;61170.66;;;21.91;45.49
21879;BME280;27908;42.708;23.278;2022-09-13T13:46:54;60980.34;;;23.06;44.80
21879;BME280;27908;42.708;23.278;2022-09-13T13:57:33;60703.44;;;24.87;40.66
21879;BME280;27908;42.708;23.278;2022-09-13T14:22:17;60869.19;;;27.56;36.34
21879;BME280;27908;42.708;23.278;2022-09-13T14:24:44;60861.53;;;28.20;35.12
21879;BME280;27908;42.708;23.278;2022-09-13T14:27:25;60955.44;;;27.98;35.84
21879;BME280;27908;42.708;23.278;2022-09-13T14:29:59;61038.53;;;28.43;33.72
21879;BME280;27908;42.708;23.278;2022-09-13T14:32:29;61237.25;;;28.29;33.29
21879;BME280;27908;42.708;23.278;2022-09-13T14:37:28;61445.56;;;27.12;36.43
21879;BME280;27908;42.708;23.278;2022-09-13T14:40:22;61572.28;;;26.37;35.07
21879;BME280;27908;42.708;23.278;2022-09-13T14:42:47;61620.69;;;26.56;35.31
21879;BME280;27908;42.708;23.278;2022-09-13T14:45:24;61498.88;;;27.44;34.60
21879;BME280;27908;42.708;23.278;2022-09-13T14:50:30;61641.53;;;27.40;34.06
21879;BME280;27908;42.708;23.278;2022-09-13T14:55:28;61874.78;;;27.01;33.80
21879;BME280;27908;42.708;23.278;2022-09-13T14:57:58;62062.63;;;25.19;35.64
21879;BME280;27908;42.708;23.278;2022-09-13T15:00:28;62123.22;;;23.80;38.34
21879;BME280;27908;42.708;23.278;2022-09-13T15:02:58;62118.00;;;23.46;39.58
21879;BME280;27908;42.708;23.278;2022-09-13T15:05:31;62022.84;;;24.30;39.45
21879;BME280;27908;42.708;23.278;2022-09-13T15:07:58;62070.34;;;24.38;38.57
21879;BME280;27908;42.708;23.278;2022-09-13T15:10:27;62006.09;;;24.42;39.34
21879;BME280;27908;42.708;23.278;2022-09-13T15:21:01;61829.53;;;26.80;35.89
21879;BME280;27908;42.708;23.278;2022-09-13T15:23:32;61940.22;;;26.28;35.85
21879;BME280;27908;42.708;23.278;2022-09-13T15:26:25;61784.22;;;27.10;36.01
21879;BME280;27908;42.708;23.278;2022-09-13T15:28:52;61883.81;;;26.63;35.94
21879;BME280;27908;42.708;23.278;2022-09-13T15:31:26;61859.38;;;26.96;35.54
21879;BME280;27908;42.708;23.278;2022-09-13T15:36:42;61976.13;;;26.12;36.45
21879;BME280;27908;42.708;23.278;2022-09-13T15:41:40;62016.59;;;26.08;36.22
21879;BME280;27908;42.708;23.278;2022-09-13T15:44:15;62026.38;;;25.92;36.43
21879;BME280;27908;42.708;23.278;2022-09-13T15:46:51;62107.72;;;25.25;37.09
21879;BME280;27908;42.708;23.278;2022-09-13T15:49:21;62090.81;;;25.18;37.74
21879;BME280;27908;42.708;23.278;2022-09-13T15:51:53;62111.16;;;25.28;38.30
21879;BME280;27908;42.708;23.278;2022-09-13T15:54:19;62126.09;;;25.02;38.39
21879;BME280;27908;42.708;23.278;2022-09-13T15:56:47;62061.91;;;25.02;38.25
21879;BME280;27908;42.708;23.278;2022-09-13T15:59:17;62103.22;;;25.20;38.23
21879;BME280;27908;42.708;23.278;2022-09-13T16:01:45;62176.09;;;24.50;39.28
21879;BME280;27908;42.708;23.278;2022-09-13T16:04:11;62252.69;;;23.48;41.27
21879;BME280;27908;42.708;23.278;2022-09-13T16:06:37;62256.38;;;22.51;42.99
21879;BME280;27908;42.708;23.278;2022-09-13T16:09:23;62296.13;;;22.45;44.57
21879;BME280;27908;42.708;23.278;2022-09-13T16:11:50;62284.84;;;21.90;45.51
21879;BME280;27908;42.708;23.278;2022-09-13T16:16:42;62262.31;;;21.04;48.03
21879;BME280;27908;42.708;23.278;2022-09-13T16:19:18;62281.19;;;20.84;49.36
21879;BME280;27908;42.708;23.278;2022-09-13T16:21:45;62278.53;;;20.30;50.60
21879;BME280;27908;42.708;23.278;2022-09-13T16:24:10;62273.59;;;19.95;52.01
21879;BME280;27908;42.708;23.278;2022-09-13T16:26:36;62309.94;;;20.05;53.09
21879;BME280;27908;42.708;23.278;2022-09-13T16:29:02;62254.72;;;20.01;52.96
21879;BME280;27908;42.708;23.278;2022-09-13T16:31:31;62275.63;;;19.81;52.89
21879;BME280;27908;42.708;23.278;2022-09-13T16:33:56;62296.22;;;19.53;53.02
21879;BME280;27908;42.708;23.278;2022-09-13T16:36:22;62296.47;;;19.46;53.87
21879;BME280;27908;42.708;23.278;2022-09-13T16:38:48;62296.56;;;19.43;54.73
21879;BME280;27908;42.708;23.278;2022-09-13T16:41:13;62231.97;;;19.28;56.11
21879;BME280;27908;42.708;23.278;2022-09-13T16:43:39;62241.00;;;19.06;57.52
21879;BME280;27908;42.708;23.278;2022-09-13T16:46:06;62216.22;;;18.89;58.97
21879;BME280;27908;42.708;23.278;2022-09-13T16:48:32;62175.41;;;18.59;60.58
21879;BME280;27908;42.708;23.278;2022-09-13T16:51:02;62177.81;;;18.49;62.09
21879;BME280;27908;42.708;23.278;2022-09-13T16:53:33;62158.75;;;18.33;63.94
21879;BME280;27908;42.708;23.278;2022-09-13T16:56:13;62158.69;;;18.20;64.97
21879;BME280;27908;42.708;23.278;2022-09-13T16:58:41;62144.88;;;18.17;65.33
21879;BME280;27908;42.708;23.278;2022-09-13T17:01:08;62144.31;;;17.85;66.85